Terminal Aerodrome Forecast
Issued by NWS

Home | Current Version | Previous Version | Text Only | Print | Product List | Glossary On
Versions: 1 2 3 4 5 6 7 8 9 10 11 12 13 14 15 16 17 18 19 20
071
FTUS41 KPBZ 221123
TAFLBE
TAF
KLBE 221123Z 2212/2312 19003KT P6SM VCSH OVC050
     FM221400 21005KT P6SM BKN040
     FM230300 20005KT P6SM BKN015=

USA.gov is the U.S. government's official web portal to all federal, state and local government web resources and services.